createdAt,value
2018-06-05T00:01:21.992Z,14.37
2018-06-05T00:03:50.329Z,14.80
2018-06-05T00:06:18.578Z,15.73
2018-06-05T00:08:46.870Z,15.07
2018-06-05T00:11:15.169Z,14.43
2018-06-05T00:13:43.431Z,14.57
2018-06-05T00:16:11.759Z,15.00
2018-06-05T00:18:40.022Z,15.00
2018-06-05T00:21:08.314Z,15.13
2018-06-05T00:23:36.596Z,15.33
2018-06-05T00:26:04.903Z,15.60
2018-06-05T00:28:33.183Z,15.10
2018-06-05T00:31:01.443Z,16.23
2018-06-05T00:33:29.744Z,15.27
2018-06-05T00:35:58.040Z,15.50
2018-06-05T00:38:26.243Z,15.40
2018-06-05T00:40:54.962Z,14.83
2018-06-05T00:43:23.206Z,14.60
2018-06-05T00:45:52.067Z,15.20
2018-06-05T00:48:20.303Z,15.17
2018-06-05T00:50:48.585Z,16.73
2018-06-05T00:53:16.882Z,15.23
2018-06-05T00:55:45.142Z,16.10
2018-06-05T00:58:13.460Z,15.70
2018-06-05T01:00:41.732Z,15.93
2018-06-05T01:03:10.023Z,14.30
2018-06-05T01:05:38.347Z,15.87
2018-06-05T01:08:06.626Z,17.20
2018-06-05T01:10:34.918Z,15.03
2018-06-05T01:13:03.217Z,16.23
2018-06-05T01:15:31.459Z,15.93
2018-06-05T01:17:59.750Z,16.60
2018-06-05T01:20:28.071Z,16.60
2018-06-05T01:22:56.334Z,16.40
2018-06-05T01:25:24.552Z,16.40
2018-06-05T01:27:52.828Z,17.50
2018-06-05T01:30:21.147Z,17.20
2018-06-05T01:32:49.391Z,16.50
2018-06-05T01:35:17.690Z,15.63
2018-06-05T01:37:45.890Z,16.53
2018-06-05T01:40:14.164Z,18.20
2018-06-05T01:42:42.481Z,18.10
2018-06-05T01:45:10.736Z,15.77
2018-06-05T01:47:39.046Z,17.80
2018-06-05T01:50:07.319Z,18.47
2018-06-05T01:52:35.599Z,17.30
2018-06-05T01:55:03.983Z,17.40
2018-06-05T01:57:32.176Z,17.60
2018-06-05T02:00:00.484Z,17.10
2018-06-05T02:02:28.754Z,18.07
2018-06-05T02:04:57.055Z,17.20
2018-06-05T02:07:25.330Z,17.47
2018-06-05T02:09:53.627Z,17.40
2018-06-05T02:12:21.921Z,17.17
2018-06-05T02:14:50.315Z,18.03
2018-06-05T02:17:18.671Z,18.33
2018-06-05T02:19:47.059Z,16.93
2018-06-05T02:22:15.359Z,17.83
2018-06-05T02:24:43.775Z,16.70
2018-06-05T02:27:12.088Z,19.07
2018-06-05T02:29:40.423Z,18.77
2018-06-05T02:32:08.752Z,19.13
2018-06-05T02:34:37.061Z,18.20
2018-06-05T02:37:05.331Z,18.70
2018-06-05T02:39:33.598Z,18.13
2018-06-05T02:42:01.916Z,18.83
2018-06-05T02:44:30.469Z,19.47
2018-06-05T02:46:58.793Z,19.67
2018-06-05T02:49:27.064Z,17.50
2018-06-05T02:51:55.455Z,18.60
2018-06-05T02:54:23.862Z,18.33
2018-06-05T02:56:52.154Z,18.90
2018-06-05T02:59:20.564Z,18.33
2018-06-05T03:01:48.803Z,17.47
2018-06-05T03:04:17.137Z,18.63
2018-06-05T03:06:45.399Z,17.00
2018-06-05T03:09:13.683Z,19.40
2018-06-05T03:11:41.993Z,19.43
2018-06-05T03:14:10.255Z,19.57
2018-06-05T03:16:38.564Z,18.50
2018-06-05T03:19:06.863Z,20.40
2018-06-05T03:21:35.130Z,19.27
2018-06-05T03:24:03.439Z,17.90
2018-06-05T03:26:31.727Z,19.77
2018-06-05T03:29:00.024Z,19.30
2018-06-05T03:31:28.283Z,19.67
2018-06-05T03:33:56.571Z,21.10
2018-06-05T03:36:24.883Z,19.13
2018-06-05T03:38:53.151Z,18.77
2018-06-05T03:41:21.435Z,20.83
2018-06-05T03:43:49.675Z,18.73
2018-06-05T03:46:17.924Z,18.07
2018-06-05T03:48:46.213Z,18.80
2018-06-05T03:51:14.503Z,18.50
2018-06-05T03:53:42.786Z,19.30
2018-06-05T03:56:11.087Z,18.50
2018-06-05T03:58:39.387Z,19.00
2018-06-05T04:01:07.631Z,20.17
2018-06-05T04:03:36.886Z,18.90
2018-06-05T04:06:05.197Z,18.67
2018-06-05T04:08:33.847Z,18.83
2018-06-05T04:11:02.140Z,19.10
2018-06-05T04:13:30.422Z,20.10
2018-06-05T04:15:58.701Z,20.47
2018-06-05T04:18:26.999Z,21.40
2018-06-05T04:20:55.294Z,21.93
2018-06-05T04:23:23.599Z,20.20
2018-06-05T04:25:52.151Z,20.43
2018-06-05T04:28:20.471Z,20.07
2018-06-05T04:30:48.751Z,19.50
2018-06-05T04:33:17.034Z,21.80
2018-06-05T04:35:45.366Z,20.23
2018-06-05T04:38:13.609Z,21.97
2018-06-05T04:40:42.215Z,20.13
2018-06-05T04:43:10.519Z,20.97
2018-06-05T04:45:38.755Z,19.10
2018-06-05T04:48:07.035Z,20.27
2018-06-05T04:50:35.235Z,24.17
2018-06-05T04:53:03.503Z,23.30
2018-06-05T04:55:31.786Z,20.53
2018-06-05T04:57:59.962Z,21.50
2018-06-05T05:00:28.202Z,20.70
2018-06-05T05:02:56.420Z,20.37
2018-06-05T05:05:24.610Z,18.73
2018-06-05T05:07:52.846Z,21.03
2018-06-05T05:10:21.052Z,20.60
2018-06-05T05:12:49.305Z,21.80
2018-06-05T05:15:17.511Z,22.00
2018-06-05T05:17:45.698Z,21.20
2018-06-05T05:20:13.927Z,19.67
2018-06-05T05:22:42.140Z,20.30
2018-06-05T05:25:10.351Z,19.00
2018-06-05T05:27:38.621Z,20.90
2018-06-05T05:30:06.859Z,22.87
2018-06-05T05:32:35.079Z,21.80
2018-06-05T05:35:03.282Z,21.67
2018-06-05T05:37:31.503Z,21.00
2018-06-05T05:39:59.739Z,21.40
2018-06-05T05:42:27.947Z,22.20
2018-06-05T05:44:56.147Z,22.00
2018-06-05T05:47:24.364Z,23.43
2018-06-05T05:49:52.619Z,22.27
2018-06-05T05:52:20.830Z,22.00
2018-06-05T05:54:49.078Z,21.53
2018-06-05T05:57:17.244Z,22.07
2018-06-05T05:59:45.470Z,23.27
2018-06-05T06:02:13.717Z,21.87
2018-06-05T06:04:41.899Z,21.70
2018-06-05T06:07:10.111Z,21.33
2018-06-05T06:09:38.404Z,22.17
2018-06-05T06:12:06.629Z,22.97
2018-06-05T06:14:34.824Z,25.83
2018-06-05T06:17:03.048Z,28.87
2018-06-05T06:19:31.257Z,23.90
2018-06-05T06:21:59.480Z,22.17
2018-06-05T06:24:27.700Z,22.43
2018-06-05T06:26:55.953Z,21.97
2018-06-05T06:29:24.151Z,21.80
2018-06-05T06:31:52.363Z,23.37
2018-06-05T06:34:20.587Z,20.50
2018-06-05T06:36:48.792Z,20.43
2018-06-05T06:39:17.018Z,20.53
2018-06-05T06:41:45.254Z,20.73
2018-06-05T06:44:13.468Z,21.90
2018-06-05T06:46:41.678Z,20.97
2018-06-05T06:49:09.890Z,22.50
2018-06-05T06:51:38.115Z,22.77
2018-06-05T06:54:06.419Z,22.10
2018-06-05T06:56:34.615Z,22.93
2018-06-05T06:59:02.846Z,22.00
2018-06-05T07:01:31.107Z,21.70
2018-06-05T07:03:59.311Z,21.27
2018-06-05T07:06:27.511Z,21.70
2018-06-05T07:08:55.734Z,22.67
2018-06-05T07:11:23.953Z,21.70
2018-06-05T07:13:52.195Z,23.13
2018-06-05T07:16:20.410Z,22.30
2018-06-05T07:18:48.654Z,21.57
2018-06-05T07:21:16.862Z,22.63
2018-06-05T07:23:45.079Z,21.10
2018-06-05T07:26:13.323Z,19.97
2018-06-05T07:28:41.531Z,19.37
2018-06-05T07:31:09.755Z,19.47
2018-06-05T07:33:37.968Z,18.53
2018-06-05T07:36:06.174Z,19.80
2018-06-05T07:38:34.389Z,20.17
2018-06-05T07:41:02.741Z,21.50
2018-06-05T07:43:31.002Z,20.93
2018-06-05T07:45:59.211Z,19.83
2018-06-05T07:48:27.462Z,20.67
2018-06-05T07:50:55.719Z,22.93
2018-06-05T07:53:23.944Z,20.47
2018-06-05T07:55:52.172Z,20.07
2018-06-05T07:58:20.455Z,19.40
2018-06-05T08:00:48.718Z,19.70
2018-06-05T08:03:16.985Z,19.50
2018-06-05T08:05:45.184Z,20.83
2018-06-05T08:08:13.387Z,20.43
2018-06-05T08:10:41.596Z,18.80
2018-06-05T08:13:09.816Z,19.80
2018-06-05T08:15:38.083Z,17.80
2018-06-05T08:18:06.298Z,18.30
2018-06-05T08:20:34.530Z,17.80
2018-06-05T08:23:02.751Z,18.40
2018-06-05T08:25:31.008Z,19.40
2018-06-05T08:27:59.227Z,19.17
2018-06-05T08:30:27.455Z,18.80
2018-06-05T08:32:55.667Z,19.43
2018-06-05T08:35:23.883Z,18.13
2018-06-05T08:37:52.094Z,18.30
2018-06-05T08:40:20.304Z,17.90
2018-06-05T08:42:48.515Z,19.70
2018-06-05T08:45:16.769Z,18.90
2018-06-05T08:47:44.998Z,17.10
2018-06-05T08:50:13.200Z,18.40
2018-06-05T08:52:41.415Z,19.17
2018-06-05T08:55:09.647Z,18.70
2018-06-05T08:57:37.854Z,18.20
2018-06-05T09:00:06.084Z,17.00
2018-06-05T09:02:34.293Z,17.97
2018-06-05T09:05:02.507Z,17.67
2018-06-05T09:07:30.719Z,17.80
2018-06-05T09:09:58.924Z,17.60
2018-06-05T09:12:27.160Z,18.23
2018-06-05T09:14:55.544Z,17.90
2018-06-05T09:17:23.801Z,17.43
2018-06-05T09:19:52.032Z,16.37
2018-06-05T09:22:20.376Z,18.03
2018-06-05T09:24:48.751Z,19.60
2018-06-05T09:27:17.083Z,16.67
2018-06-05T09:29:45.310Z,17.00
2018-06-05T09:32:13.574Z,17.83
2018-06-05T09:34:41.868Z,18.00
2018-06-05T09:37:10.160Z,17.50
2018-06-05T09:39:38.534Z,17.30
2018-06-05T09:42:06.759Z,17.20
2018-06-05T09:44:35.153Z,16.80
2018-06-05T09:47:03.411Z,17.50
2018-06-05T09:49:31.669Z,17.13
2018-06-05T09:51:59.951Z,18.70
2018-06-05T09:54:28.182Z,16.17
2018-06-05T09:56:56.477Z,17.50
2018-06-05T09:59:24.715Z,18.10
2018-06-05T10:01:52.947Z,16.53
2018-06-05T10:04:21.209Z,14.77
2018-06-05T10:06:50.042Z,15.37
2018-06-05T10:09:18.528Z,17.10
2018-06-05T10:11:47.345Z,15.53
2018-06-05T10:14:15.710Z,17.20
2018-06-05T10:16:44.514Z,15.77
2018-06-05T10:19:12.771Z,17.40
2018-06-05T10:21:41.059Z,16.10
2018-06-05T10:24:09.284Z,14.97
2018-06-05T10:26:37.558Z,15.43
2018-06-05T10:29:05.828Z,17.20
2018-06-05T10:31:34.119Z,15.77
2018-06-05T10:34:02.319Z,14.40
2018-06-05T10:36:30.519Z,15.60
2018-06-05T10:38:58.751Z,15.90
2018-06-05T10:41:26.979Z,14.00
2018-06-05T10:43:55.198Z,15.83
2018-06-05T10:46:23.439Z,15.37
2018-06-05T10:48:51.698Z,16.23
2018-06-05T10:51:20.069Z,15.80
2018-06-05T10:53:48.430Z,15.17
2018-06-05T10:56:16.660Z,15.27
2018-06-05T10:58:44.882Z,14.70
2018-06-05T11:01:13.079Z,15.10
2018-06-05T11:03:41.331Z,17.60
2018-06-05T11:06:09.653Z,15.03
2018-06-05T11:08:37.827Z,17.40
2018-06-05T11:11:06.073Z,16.50
2018-06-05T11:13:34.266Z,13.20
2018-06-05T11:16:02.515Z,14.97
2018-06-05T11:18:31.284Z,14.00
2018-06-05T11:20:59.490Z,13.90
2018-06-05T11:23:27.714Z,13.90
2018-06-05T11:25:55.908Z,15.20
2018-06-05T11:28:24.187Z,15.03
2018-06-05T11:30:52.492Z,14.23
2018-06-05T11:33:20.707Z,16.33
2018-06-05T11:35:48.929Z,14.37
2018-06-05T11:38:17.118Z,14.57
2018-06-05T11:40:45.331Z,14.60
2018-06-05T11:43:13.546Z,13.17
2018-06-05T11:45:41.750Z,14.13
2018-06-05T11:48:10.326Z,12.73
2018-06-05T11:50:38.523Z,13.60
2018-06-05T11:53:06.730Z,13.07
2018-06-05T11:55:34.927Z,12.40
2018-06-05T11:58:03.134Z,13.20
2018-06-05T12:00:31.339Z,13.60
2018-06-05T12:02:59.546Z,13.50
2018-06-05T12:05:27.759Z,14.20
2018-06-05T12:07:55.951Z,13.60
2018-06-05T12:10:24.172Z,12.07
2018-06-05T12:12:52.397Z,12.00
2018-06-05T12:15:20.590Z,13.03
2018-06-05T12:17:49.843Z,12.93
2018-06-05T12:20:18.004Z,13.57
2018-06-05T12:22:46.222Z,13.73
2018-06-05T12:25:14.418Z,16.77
2018-06-05T12:27:42.611Z,16.43
2018-06-05T12:30:10.831Z,16.60
2018-06-05T12:32:39.027Z,17.17
2018-06-05T12:35:07.236Z,16.57
2018-06-05T12:37:35.438Z,16.83
2018-06-05T12:40:03.667Z,17.70
2018-06-05T12:42:31.904Z,16.23
2018-06-05T12:45:00.103Z,17.00
2018-06-05T12:47:28.318Z,16.47
2018-06-05T12:49:56.508Z,16.57
2018-06-05T12:52:24.702Z,14.93
2018-06-05T12:54:52.908Z,14.50
2018-06-05T12:57:21.128Z,15.00
2018-06-05T12:59:49.546Z,14.40
2018-06-05T13:02:17.738Z,15.50
2018-06-05T13:04:45.951Z,14.37
2018-06-05T13:07:14.150Z,14.23
2018-06-05T13:09:42.335Z,15.10
2018-06-05T13:12:10.543Z,13.30
2018-06-05T13:14:38.734Z,13.43
2018-06-05T13:17:06.946Z,15.00
2018-06-05T13:19:35.134Z,14.10
2018-06-05T13:22:03.335Z,14.80
2018-06-05T13:24:31.550Z,15.17
2018-06-05T13:27:03.591Z,14.43
2018-06-05T13:29:31.892Z,15.37
2018-06-05T13:32:00.108Z,15.60
2018-06-05T13:34:28.315Z,16.30
2018-06-05T13:36:56.531Z,16.27
2018-06-05T13:39:24.739Z,16.20
2018-06-05T13:41:52.954Z,17.80
2018-06-05T13:44:21.162Z,15.90
2018-06-05T13:46:49.379Z,16.63
2018-06-05T13:49:17.593Z,16.70
2018-06-05T13:51:45.807Z,17.40
2018-06-05T13:54:14.041Z,16.30
2018-06-05T13:56:42.214Z,16.30
2018-06-05T13:59:10.411Z,16.30
2018-06-05T14:01:38.606Z,16.20
2018-06-05T14:04:06.816Z,15.50
2018-06-05T14:06:35.019Z,16.57
2018-06-05T14:09:03.727Z,16.90
2018-06-05T14:11:31.936Z,15.30
2018-06-05T14:14:00.135Z,16.77
2018-06-05T14:16:28.333Z,15.90
2018-06-05T14:18:56.539Z,15.93
2018-06-05T14:21:24.747Z,16.63
2018-06-05T14:23:52.947Z,16.70
2018-06-05T14:26:21.162Z,15.93
2018-06-05T14:28:49.398Z,15.23
2018-06-05T14:31:17.590Z,15.90
2018-06-05T14:33:45.797Z,17.13
2018-06-05T14:36:14.034Z,16.20
2018-06-05T14:38:42.307Z,16.43
2018-06-05T14:41:16.740Z,16.10
2018-06-05T14:43:44.975Z,16.27
2018-06-05T14:46:13.179Z,17.70
2018-06-05T14:48:41.389Z,16.17
2018-06-05T14:51:09.599Z,16.70
2018-06-05T14:53:37.811Z,17.07
2018-06-05T14:56:06.043Z,17.23
2018-06-05T14:58:34.242Z,16.77
2018-06-05T15:01:02.468Z,16.47
2018-06-05T15:03:30.663Z,16.80
2018-06-05T15:05:58.866Z,16.50
2018-06-05T15:08:27.071Z,17.03
2018-06-05T15:10:55.277Z,17.63
2018-06-05T15:13:23.518Z,17.03
2018-06-05T15:15:51.732Z,17.03
2018-06-05T15:18:19.975Z,16.50
2018-06-05T15:20:48.179Z,16.70
2018-06-05T15:23:16.399Z,18.60
2018-06-05T15:25:44.658Z,16.90
2018-06-05T15:28:12.878Z,16.17
2018-06-05T15:30:41.104Z,16.63
2018-06-05T15:33:09.319Z,16.40
2018-06-05T15:35:37.848Z,17.57
2018-06-05T15:38:06.078Z,15.90
2018-06-05T15:40:34.353Z,17.50
2018-06-05T15:43:02.628Z,17.50
2018-06-05T15:45:30.832Z,16.97
2018-06-05T15:47:59.099Z,17.07
2018-06-05T15:50:27.382Z,18.07
2018-06-05T15:52:55.559Z,17.57
2018-06-05T15:55:23.771Z,16.40
2018-06-05T15:57:51.991Z,18.23
2018-06-05T16:00:20.256Z,19.10
2018-06-05T16:02:48.543Z,17.27
2018-06-05T16:05:16.747Z,17.10
2018-06-05T16:07:44.939Z,16.17
2018-06-05T16:10:13.131Z,16.23
2018-06-05T16:12:41.340Z,16.30
2018-06-05T16:15:09.558Z,17.37
2018-06-05T16:17:37.727Z,15.93
2018-06-05T16:20:05.955Z,15.13
2018-06-05T16:22:34.159Z,16.57
2018-06-05T16:25:02.821Z,17.73
2018-06-05T16:27:31.004Z,19.07
2018-06-05T16:29:59.327Z,18.73
2018-06-05T16:32:27.564Z,18.20
2018-06-05T16:34:55.823Z,17.20
2018-06-05T16:37:24.957Z,18.50
2018-06-05T16:39:53.244Z,18.57
2018-06-05T16:42:21.456Z,17.30
2018-06-05T16:44:49.723Z,17.80
2018-06-05T16:47:17.987Z,16.10
2018-06-05T16:49:46.295Z,16.03
2018-06-05T16:52:14.562Z,18.00
2018-06-05T16:54:42.864Z,20.60
2018-06-05T16:57:11.192Z,17.50
2018-06-05T16:59:39.389Z,16.27
2018-06-05T17:02:07.676Z,15.20
2018-06-05T17:04:35.929Z,15.87
2018-06-05T17:07:04.103Z,16.37
2018-06-05T17:09:32.303Z,16.63
2018-06-05T17:12:00.503Z,16.13
2018-06-05T17:14:28.696Z,16.00
2018-06-05T17:16:57.211Z,14.67
2018-06-05T17:19:25.507Z,17.50
2018-06-05T17:21:53.723Z,15.40
2018-06-05T17:24:22.023Z,16.43
2018-06-05T17:26:50.227Z,16.83
2018-06-05T17:29:18.413Z,15.97
2018-06-05T17:31:46.686Z,15.77
2018-06-05T17:34:15.013Z,15.50
2018-06-05T17:36:43.307Z,16.00
2018-06-05T17:39:11.615Z,16.80
2018-06-05T17:41:39.963Z,16.27
2018-06-05T17:44:09.375Z,16.40
2018-06-05T17:46:37.963Z,16.20
2018-06-05T17:49:06.724Z,17.03
2018-06-05T17:51:34.951Z,15.80
2018-06-05T17:54:03.179Z,16.73
2018-06-05T17:56:31.476Z,17.17
2018-06-05T17:58:59.761Z,15.57
2018-06-05T18:01:28.054Z,17.10
2018-06-05T18:03:56.285Z,17.53
2018-06-05T18:06:24.491Z,15.70
2018-06-05T18:08:52.798Z,17.70
2018-06-05T18:11:21.075Z,17.23
2018-06-05T18:13:49.380Z,17.77
2018-06-05T18:16:17.672Z,16.90
2018-06-05T18:18:46.083Z,17.30
2018-06-05T18:21:14.324Z,17.27
2018-06-05T18:23:42.518Z,18.23
2018-06-05T18:26:10.839Z,17.90
2018-06-05T18:28:39.095Z,18.10
2018-06-05T18:31:07.407Z,17.40
2018-06-05T18:33:35.691Z,18.90
2018-06-05T18:36:03.988Z,18.10
2018-06-05T18:38:32.284Z,17.50
2018-06-05T18:41:00.551Z,17.60
2018-06-05T18:43:28.841Z,17.63
2018-06-05T18:45:57.136Z,17.37
2018-06-05T18:48:25.439Z,17.77
2018-06-05T18:50:53.724Z,16.50
2018-06-05T18:53:22.002Z,18.30
2018-06-05T18:55:50.208Z,17.77
2018-06-05T18:58:18.490Z,18.20
2018-06-05T19:00:46.798Z,18.30
2018-06-05T19:03:15.146Z,18.67
2018-06-05T19:05:43.435Z,17.60
2018-06-05T19:08:11.732Z,18.40
2018-06-05T19:10:41.775Z,17.63
2018-06-05T19:13:16.830Z,18.33
2018-06-05T19:15:45.210Z,18.40
2018-06-05T19:18:13.420Z,17.30
2018-06-05T19:20:41.632Z,18.10
2018-06-05T19:23:09.915Z,18.80
2018-06-05T19:25:38.161Z,17.20
2018-06-05T19:28:06.758Z,18.67
2018-06-05T19:30:35.171Z,19.50
2018-06-05T19:33:03.387Z,18.03
2018-06-05T19:35:31.610Z,18.57
2018-06-05T19:37:59.940Z,18.10
2018-06-05T19:40:28.222Z,18.40
2018-06-05T19:42:56.485Z,17.33
2018-06-05T19:45:24.860Z,17.73
2018-06-05T19:47:53.119Z,17.90
2018-06-05T19:50:21.484Z,17.87
2018-06-05T19:52:49.755Z,17.27
2018-06-05T19:55:18.051Z,17.70
2018-06-05T19:57:46.479Z,17.97
2018-06-05T20:00:14.739Z,17.67
2018-06-05T20:02:43.043Z,20.00
2018-06-05T20:05:11.319Z,18.13
2018-06-05T20:07:39.568Z,17.37
2018-06-05T20:10:07.871Z,17.03
2018-06-05T20:12:36.195Z,19.00
2018-06-05T20:15:04.499Z,18.40
2018-06-05T20:17:32.740Z,17.87
2018-06-05T20:20:01.020Z,19.07
2018-06-05T20:22:29.334Z,17.50
2018-06-05T20:24:57.606Z,17.90
2018-06-05T20:27:25.903Z,18.03
2018-06-05T20:29:54.235Z,18.00
2018-06-05T20:32:22.747Z,17.57
2018-06-05T20:34:50.962Z,17.97
2018-06-05T20:37:19.315Z,16.90
2018-06-05T20:39:47.562Z,18.20
2018-06-05T20:42:15.811Z,18.67
2018-06-05T20:44:44.127Z,17.63
2018-06-05T20:47:12.405Z,17.60
2018-06-05T20:49:40.679Z,17.43
2018-06-05T20:52:08.993Z,16.13
2018-06-05T20:54:37.325Z,15.87
2018-06-05T20:57:05.624Z,17.40
2018-06-05T20:59:33.854Z,17.20
2018-06-05T21:02:02.156Z,16.93
2018-06-05T21:04:32.164Z,17.60
2018-06-05T21:07:08.425Z,17.40
2018-06-05T21:09:45.642Z,17.60
2018-06-05T21:12:14.088Z,17.57
2018-06-05T21:14:42.330Z,17.03
2018-06-05T21:17:11.663Z,16.23
2018-06-05T21:19:40.215Z,16.93
2018-06-05T21:22:08.539Z,17.07
2018-06-05T21:24:36.964Z,17.10
2018-06-05T21:27:06.390Z,17.87
2018-06-05T21:29:34.743Z,17.87
2018-06-05T21:32:03.163Z,19.40
2018-06-05T21:34:31.399Z,19.13
2018-06-05T21:36:59.687Z,18.80
2018-06-05T21:39:27.995Z,19.77
2018-06-05T21:41:56.283Z,19.53
2018-06-05T21:44:25.604Z,20.10
2018-06-05T21:46:53.879Z,20.60
2018-06-05T21:49:22.163Z,20.00
2018-06-05T21:51:50.462Z,20.20
2018-06-05T21:54:18.763Z,20.37
2018-06-05T21:56:47.051Z,21.50
2018-06-05T21:59:15.322Z,22.10
2018-06-05T22:01:43.611Z,22.13
2018-06-05T22:04:12.096Z,21.70
2018-06-05T22:06:40.427Z,21.90
2018-06-05T22:09:10.147Z,21.07
2018-06-05T22:11:38.416Z,22.07
2018-06-05T22:14:06.700Z,23.07
2018-06-05T22:16:34.992Z,21.93
2018-06-05T22:19:03.268Z,21.77
2018-06-05T22:21:31.563Z,23.20
2018-06-05T22:23:59.848Z,21.33
2018-06-05T22:26:28.142Z,23.20
2018-06-05T22:28:56.453Z,23.60
2018-06-05T22:31:24.711Z,23.50
2018-06-05T22:33:53.011Z,22.17
2018-06-05T22:36:21.292Z,23.43
2018-06-05T22:38:49.604Z,24.10
2018-06-05T22:41:17.874Z,23.70
2018-06-05T22:43:46.163Z,22.00
2018-06-05T22:46:14.450Z,22.50
2018-06-05T22:48:42.760Z,21.90
2018-06-05T22:51:11.070Z,22.97
2018-06-05T22:53:39.311Z,22.27
2018-06-05T22:56:07.610Z,24.70
2018-06-05T22:58:35.935Z,22.73
2018-06-05T23:01:04.183Z,21.97
2018-06-05T23:03:32.491Z,22.90
2018-06-05T23:06:00.746Z,25.47
2018-06-05T23:08:29.071Z,22.87
2018-06-05T23:10:57.339Z,23.87
2018-06-05T23:13:25.635Z,23.53
2018-06-05T23:15:53.918Z,25.20
2018-06-05T23:18:22.113Z,23.17
2018-06-05T23:20:50.404Z,23.73
2018-06-05T23:23:18.707Z,23.67
2018-06-05T23:25:46.963Z,24.13
2018-06-05T23:28:15.179Z,25.13
2018-06-05T23:30:43.463Z,24.63
2018-06-05T23:33:11.746Z,24.53
2018-06-05T23:35:40.015Z,23.80
2018-06-05T23:38:08.364Z,24.30
2018-06-05T23:40:36.598Z,24.00
2018-06-05T23:43:04.907Z,24.20
2018-06-05T23:45:33.187Z,23.60
2018-06-05T23:48:01.458Z,25.00
2018-06-05T23:50:29.787Z,26.67
2018-06-05T23:52:58.039Z,25.07
2018-06-05T23:55:26.364Z,23.43
2018-06-05T23:57:54.644Z,25.63
